sensor_id;sensor_type;location;lat;lon;timestamp;P1;durP1;ratioP1;P2;durP2;ratioP2
9904;SDS011;4991;43.566;27.820;2022-12-08T00:01:21;42.83;;;21.67;;
9904;SDS011;4991;43.566;27.820;2022-12-08T00:03:48;41.97;;;23.23;;
9904;SDS011;4991;43.566;27.820;2022-12-08T00:09:05;42.33;;;23.30;;
9904;SDS011;4991;43.566;27.820;2022-12-08T00:14:25;45.07;;;24.47;;
9904;SDS011;4991;43.566;27.820;2022-12-08T00:16:55;50.03;;;25.03;;
9904;SDS011;4991;43.566;27.820;2022-12-08T00:19:22;43.23;;;24.47;;
9904;SDS011;4991;43.566;27.820;2022-12-08T00:21:48;44.67;;;26.43;;
9904;SDS011;4991;43.566;27.820;2022-12-08T00:24:14;46.87;;;24.80;;
9904;SDS011;4991;43.566;27.820;2022-12-08T00:26:42;47.20;;;24.53;;
9904;SDS011;4991;43.566;27.820;2022-12-08T00:29:08;42.17;;;24.40;;
9904;SDS011;4991;43.566;27.820;2022-12-08T00:31:33;43.53;;;22.87;;
9904;SDS011;4991;43.566;27.820;2022-12-08T00:33:59;45.23;;;24.60;;
9904;SDS011;4991;43.566;27.820;2022-12-08T00:36:25;43.93;;;24.60;;
9904;SDS011;4991;43.566;27.820;2022-12-08T00:38:51;47.13;;;24.83;;
9904;SDS011;4991;43.566;27.820;2022-12-08T00:41:21;43.33;;;24.10;;
9904;SDS011;4991;43.566;27.820;2022-12-08T00:44:09;42.30;;;22.97;;
9904;SDS011;4991;43.566;27.820;2022-12-08T00:46:36;45.47;;;22.83;;
9904;SDS011;4991;43.566;27.820;2022-12-08T00:49:03;46.57;;;23.60;;
9904;SDS011;4991;43.566;27.820;2022-12-08T00:51:29;38.70;;;20.67;;
9904;SDS011;4991;43.566;27.820;2022-12-08T00:53:55;47.57;;;24.80;;
9904;SDS011;4991;43.566;27.820;2022-12-08T00:56:21;43.60;;;22.33;;
9904;SDS011;4991;43.566;27.820;2022-12-08T00:58:47;43.20;;;23.07;;
9904;SDS011;4991;43.566;27.820;2022-12-08T01:01:13;47.67;;;24.40;;
9904;SDS011;4991;43.566;27.820;2022-12-08T01:03:39;49.33;;;25.27;;
9904;SDS011;4991;43.566;27.820;2022-12-08T01:06:06;51.07;;;25.87;;
9904;SDS011;4991;43.566;27.820;2022-12-08T01:08:32;48.40;;;25.83;;
9904;SDS011;4991;43.566;27.820;2022-12-08T01:11:04;51.30;;;25.60;;
9904;SDS011;4991;43.566;27.820;2022-12-08T01:13:34;49.23;;;24.53;;
9904;SDS011;4991;43.566;27.820;2022-12-08T01:16:00;47.80;;;24.70;;
9904;SDS011;4991;43.566;27.820;2022-12-08T01:18:26;48.97;;;24.93;;
9904;SDS011;4991;43.566;27.820;2022-12-08T01:20:53;46.07;;;24.00;;
9904;SDS011;4991;43.566;27.820;2022-12-08T01:23:18;50.00;;;26.20;;
9904;SDS011;4991;43.566;27.820;2022-12-08T01:25:44;54.43;;;27.13;;
9904;SDS011;4991;43.566;27.820;2022-12-08T01:28:10;50.63;;;25.10;;
9904;SDS011;4991;43.566;27.820;2022-12-08T01:30:39;48.67;;;25.93;;
9904;SDS011;4991;43.566;27.820;2022-12-08T01:33:05;48.53;;;25.47;;
9904;SDS011;4991;43.566;27.820;2022-12-08T01:35:32;52.30;;;25.20;;
9904;SDS011;4991;43.566;27.820;2022-12-08T01:37:58;45.23;;;24.67;;
9904;SDS011;4991;43.566;27.820;2022-12-08T01:40:24;49.37;;;23.87;;
9904;SDS011;4991;43.566;27.820;2022-12-08T01:42:49;45.73;;;23.77;;
9904;SDS011;4991;43.566;27.820;2022-12-08T01:48:02;48.87;;;25.03;;
9904;SDS011;4991;43.566;27.820;2022-12-08T01:50:32;44.53;;;22.93;;
9904;SDS011;4991;43.566;27.820;2022-12-08T01:53:19;45.80;;;23.30;;
9904;SDS011;4991;43.566;27.820;2022-12-08T01:55:49;43.07;;;23.23;;
9904;SDS011;4991;43.566;27.820;2022-12-08T01:58:39;52.27;;;25.43;;
9904;SDS011;4991;43.566;27.820;2022-12-08T02:01:05;48.93;;;22.90;;
9904;SDS011;4991;43.566;27.820;2022-12-08T02:03:39;48.30;;;22.97;;
9904;SDS011;4991;43.566;27.820;2022-12-08T02:06:11;48.83;;;25.03;;
9904;SDS011;4991;43.566;27.820;2022-12-08T02:08:39;38.73;;;21.27;;
9904;SDS011;4991;43.566;27.820;2022-12-08T02:11:09;47.00;;;24.67;;
9904;SDS011;4991;43.566;27.820;2022-12-08T02:13:35;44.77;;;21.30;;
9904;SDS011;4991;43.566;27.820;2022-12-08T02:22:24;49.83;;;24.00;;
9904;SDS011;4991;43.566;27.820;2022-12-08T02:39:25;40.60;;;22.37;;
9904;SDS011;4991;43.566;27.820;2022-12-08T02:42:28;44.43;;;21.30;;
9904;SDS011;4991;43.566;27.820;2022-12-08T02:45:06;41.70;;;22.10;;
9904;SDS011;4991;43.566;27.820;2022-12-08T02:47:37;39.67;;;20.40;;
9904;SDS011;4991;43.566;27.820;2022-12-08T02:50:04;40.47;;;22.23;;
9904;SDS011;4991;43.566;27.820;2022-12-08T02:54:57;41.70;;;22.83;;
9904;SDS011;4991;43.566;27.820;2022-12-08T03:00:21;42.13;;;22.47;;
9904;SDS011;4991;43.566;27.820;2022-12-08T03:08:14;43.07;;;20.60;;
9904;SDS011;4991;43.566;27.820;2022-12-08T03:10:47;61.23;;;28.73;;
9904;SDS011;4991;43.566;27.820;2022-12-08T03:13:28;65.63;;;27.57;;
9904;SDS011;4991;43.566;27.820;2022-12-08T03:15:58;92.50;;;26.30;;
9904;SDS011;4991;43.566;27.820;2022-12-08T03:18:26;64.63;;;28.73;;
9904;SDS011;4991;43.566;27.820;2022-12-08T03:20:56;79.13;;;26.07;;
9904;SDS011;4991;43.566;27.820;2022-12-08T03:23:23;61.57;;;25.97;;
9904;SDS011;4991;43.566;27.820;2022-12-08T03:25:55;70.83;;;29.03;;
9904;SDS011;4991;43.566;27.820;2022-12-08T03:28:28;59.53;;;28.53;;
9904;SDS011;4991;43.566;27.820;2022-12-08T03:30:54;80.37;;;32.03;;
9904;SDS011;4991;43.566;27.820;2022-12-08T03:33:25;89.60;;;33.30;;
9904;SDS011;4991;43.566;27.820;2022-12-08T03:35:54;76.83;;;33.00;;
9904;SDS011;4991;43.566;27.820;2022-12-08T03:38:23;85.27;;;34.27;;
9904;SDS011;4991;43.566;27.820;2022-12-08T03:40:48;85.50;;;34.60;;
9904;SDS011;4991;43.566;27.820;2022-12-08T03:43:34;82.40;;;33.10;;
9904;SDS011;4991;43.566;27.820;2022-12-08T03:46:00;75.50;;;32.73;;
9904;SDS011;4991;43.566;27.820;2022-12-08T03:48:26;73.87;;;32.37;;
9904;SDS011;4991;43.566;27.820;2022-12-08T03:50:51;62.87;;;30.50;;
9904;SDS011;4991;43.566;27.820;2022-12-08T03:53:17;70.53;;;30.47;;
9904;SDS011;4991;43.566;27.820;2022-12-08T03:55:43;79.77;;;31.40;;
9904;SDS011;4991;43.566;27.820;2022-12-08T03:58:08;90.00;;;31.77;;
9904;SDS011;4991;43.566;27.820;2022-12-08T04:00:34;81.67;;;29.90;;
9904;SDS011;4991;43.566;27.820;2022-12-08T04:02:59;70.53;;;31.03;;
9904;SDS011;4991;43.566;27.820;2022-12-08T04:05:25;77.33;;;31.47;;
9904;SDS011;4991;43.566;27.820;2022-12-08T04:07:51;105.57;;;33.07;;
9904;SDS011;4991;43.566;27.820;2022-12-08T04:10:20;76.83;;;31.83;;
9904;SDS011;4991;43.566;27.820;2022-12-08T04:12:46;86.07;;;30.00;;
9904;SDS011;4991;43.566;27.820;2022-12-08T04:15:12;113.30;;;33.13;;
9904;SDS011;4991;43.566;27.820;2022-12-08T04:17:37;94.77;;;32.80;;
9904;SDS011;4991;43.566;27.820;2022-12-08T04:20:03;119.70;;;33.17;;
9904;SDS011;4991;43.566;27.820;2022-12-08T04:22:29;131.10;;;31.03;;
9904;SDS011;4991;43.566;27.820;2022-12-08T04:24:54;101.00;;;32.07;;
9904;SDS011;4991;43.566;27.820;2022-12-08T04:27:20;106.97;;;34.23;;
9904;SDS011;4991;43.566;27.820;2022-12-08T04:29:46;116.30;;;39.03;;
9904;SDS011;4991;43.566;27.820;2022-12-08T04:32:11;136.37;;;38.87;;
9904;SDS011;4991;43.566;27.820;2022-12-08T04:34:37;120.13;;;35.97;;
9904;SDS011;4991;43.566;27.820;2022-12-08T04:37:02;124.67;;;34.37;;
9904;SDS011;4991;43.566;27.820;2022-12-08T04:39:28;162.67;;;35.23;;
9904;SDS011;4991;43.566;27.820;2022-12-08T04:41:54;118.83;;;32.50;;
9904;SDS011;4991;43.566;27.820;2022-12-08T04:44:19;146.87;;;31.77;;
9904;SDS011;4991;43.566;27.820;2022-12-08T04:46:45;125.03;;;28.60;;
9904;SDS011;4991;43.566;27.820;2022-12-08T04:49:10;63.27;;;25.03;;
9904;SDS011;4991;43.566;27.820;2022-12-08T04:51:36;77.80;;;20.93;;
9904;SDS011;4991;43.566;27.820;2022-12-08T04:54:01;57.13;;;21.43;;
9904;SDS011;4991;43.566;27.820;2022-12-08T04:56:27;44.73;;;18.83;;
9904;SDS011;4991;43.566;27.820;2022-12-08T04:58:53;69.87;;;20.83;;
9904;SDS011;4991;43.566;27.820;2022-12-08T05:01:18;91.73;;;21.80;;
9904;SDS011;4991;43.566;27.820;2022-12-08T05:03:44;75.57;;;21.17;;
9904;SDS011;4991;43.566;27.820;2022-12-08T05:06:11;87.77;;;19.40;;
9904;SDS011;4991;43.566;27.820;2022-12-08T05:08:38;150.07;;;25.80;;
9904;SDS011;4991;43.566;27.820;2022-12-08T05:11:04;86.40;;;19.40;;
9904;SDS011;4991;43.566;27.820;2022-12-08T05:13:31;97.07;;;21.87;;
9904;SDS011;4991;43.566;27.820;2022-12-08T05:16:04;77.83;;;18.97;;
9904;SDS011;4991;43.566;27.820;2022-12-08T05:18:31;89.83;;;19.70;;
9904;SDS011;4991;43.566;27.820;2022-12-08T05:20:57;119.07;;;23.47;;
9904;SDS011;4991;43.566;27.820;2022-12-08T05:23:24;190.03;;;23.73;;
9904;SDS011;4991;43.566;27.820;2022-12-08T05:25:50;109.10;;;21.47;;
9904;SDS011;4991;43.566;27.820;2022-12-08T05:28:15;121.80;;;20.20;;
9904;SDS011;4991;43.566;27.820;2022-12-08T05:30:41;181.60;;;23.27;;
9904;SDS011;4991;43.566;27.820;2022-12-08T05:33:07;99.47;;;18.13;;
9904;SDS011;4991;43.566;27.820;2022-12-08T05:35:32;161.13;;;19.63;;
9904;SDS011;4991;43.566;27.820;2022-12-08T05:37:58;121.10;;;19.60;;
9904;SDS011;4991;43.566;27.820;2022-12-08T05:40:23;161.07;;;21.50;;
9904;SDS011;4991;43.566;27.820;2022-12-08T05:42:49;125.27;;;22.83;;
9904;SDS011;4991;43.566;27.820;2022-12-08T05:45:15;83.80;;;21.63;;
9904;SDS011;4991;43.566;27.820;2022-12-08T05:47:40;140.13;;;19.63;;
9904;SDS011;4991;43.566;27.820;2022-12-08T05:50:06;100.87;;;16.53;;
9904;SDS011;4991;43.566;27.820;2022-12-08T05:52:32;37.23;;;16.87;;
9904;SDS011;4991;43.566;27.820;2022-12-08T05:54:57;144.77;;;23.27;;
9904;SDS011;4991;43.566;27.820;2022-12-08T05:57:23;97.97;;;17.50;;
9904;SDS011;4991;43.566;27.820;2022-12-08T05:59:49;102.20;;;18.87;;
9904;SDS011;4991;43.566;27.820;2022-12-08T06:02:14;96.40;;;20.20;;
9904;SDS011;4991;43.566;27.820;2022-12-08T06:04:40;84.13;;;21.77;;
9904;SDS011;4991;43.566;27.820;2022-12-08T06:07:07;95.27;;;21.60;;
9904;SDS011;4991;43.566;27.820;2022-12-08T06:09:33;74.97;;;18.50;;
9904;SDS011;4991;43.566;27.820;2022-12-08T06:11:59;86.73;;;18.53;;
9904;SDS011;4991;43.566;27.820;2022-12-08T06:14:25;90.20;;;18.87;;
9904;SDS011;4991;43.566;27.820;2022-12-08T06:16:51;52.43;;;17.33;;
9904;SDS011;4991;43.566;27.820;2022-12-08T06:19:17;43.00;;;16.73;;
9904;SDS011;4991;43.566;27.820;2022-12-08T06:21:43;61.93;;;13.70;;
9904;SDS011;4991;43.566;27.820;2022-12-08T06:24:08;0.00;;;0.00;;
9904;SDS011;4991;43.566;27.820;2022-12-08T06:26:34;0.00;;;0.00;;
9904;SDS011;4991;43.566;27.820;2022-12-08T06:29:00;0.00;;;0.00;;
9904;SDS011;4991;43.566;27.820;2022-12-08T06:31:26;0.00;;;0.00;;
9904;SDS011;4991;43.566;27.820;2022-12-08T06:33:52;0.00;;;0.00;;
9904;SDS011;4991;43.566;27.820;2022-12-08T06:36:24;0.00;;;0.00;;
9904;SDS011;4991;43.566;27.820;2022-12-08T06:38:51;0.10;;;0.10;;
9904;SDS011;4991;43.566;27.820;2022-12-08T06:41:17;0.00;;;0.00;;
9904;SDS011;4991;43.566;27.820;2022-12-08T06:43:43;0.00;;;0.00;;
9904;SDS011;4991;43.566;27.820;2022-12-08T06:46:10;0.00;;;0.00;;
9904;SDS011;4991;43.566;27.820;2022-12-08T06:48:37;0.00;;;0.00;;
9904;SDS011;4991;43.566;27.820;2022-12-08T06:51:18;0.00;;;0.00;;
9904;SDS011;4991;43.566;27.820;2022-12-08T06:53:47;0.00;;;0.00;;
9904;SDS011;4991;43.566;27.820;2022-12-08T06:56:13;0.00;;;0.00;;
9904;SDS011;4991;43.566;27.820;2022-12-08T06:58:40;0.00;;;0.00;;
9904;SDS011;4991;43.566;27.820;2022-12-08T07:01:06;0.00;;;0.00;;
9904;SDS011;4991;43.566;27.820;2022-12-08T07:03:36;0.50;;;0.50;;
9904;SDS011;4991;43.566;27.820;2022-12-08T07:06:03;0.00;;;0.00;;
9904;SDS011;4991;43.566;27.820;2022-12-08T07:08:30;0.10;;;0.10;;
9904;SDS011;4991;43.566;27.820;2022-12-08T07:10:56;0.00;;;0.00;;
9904;SDS011;4991;43.566;27.820;2022-12-08T07:13:22;0.10;;;0.10;;
9904;SDS011;4991;43.566;27.820;2022-12-08T07:15:47;0.20;;;0.20;;
9904;SDS011;4991;43.566;27.820;2022-12-08T07:18:13;0.00;;;0.00;;
9904;SDS011;4991;43.566;27.820;2022-12-08T07:20:38;0.00;;;0.00;;
9904;SDS011;4991;43.566;27.820;2022-12-08T07:23:04;0.10;;;0.10;;
9904;SDS011;4991;43.566;27.820;2022-12-08T07:25:30;0.03;;;0.03;;
9904;SDS011;4991;43.566;27.820;2022-12-08T07:27:55;0.10;;;0.10;;
9904;SDS011;4991;43.566;27.820;2022-12-08T07:30:21;0.00;;;0.00;;
9904;SDS011;4991;43.566;27.820;2022-12-08T07:32:47;0.00;;;0.00;;
9904;SDS011;4991;43.566;27.820;2022-12-08T07:35:12;0.00;;;0.00;;
9904;SDS011;4991;43.566;27.820;2022-12-08T07:37:38;0.50;;;0.50;;
9904;SDS011;4991;43.566;27.820;2022-12-08T07:40:04;0.00;;;0.00;;
9904;SDS011;4991;43.566;27.820;2022-12-08T07:42:31;0.00;;;0.00;;
9904;SDS011;4991;43.566;27.820;2022-12-08T07:44:57;0.00;;;0.00;;
9904;SDS011;4991;43.566;27.820;2022-12-08T07:47:23;0.00;;;0.00;;
9904;SDS011;4991;43.566;27.820;2022-12-08T07:49:49;0.03;;;0.03;;
9904;SDS011;4991;43.566;27.820;2022-12-08T07:52:14;0.00;;;0.00;;
9904;SDS011;4991;43.566;27.820;2022-12-08T07:54:40;0.00;;;0.00;;
9904;SDS011;4991;43.566;27.820;2022-12-08T07:57:05;0.00;;;0.00;;
9904;SDS011;4991;43.566;27.820;2022-12-08T07:59:33;0.10;;;0.10;;
9904;SDS011;4991;43.566;27.820;2022-12-08T08:01:59;0.20;;;0.20;;
9904;SDS011;4991;43.566;27.820;2022-12-08T08:04:24;0.10;;;0.10;;
9904;SDS011;4991;43.566;27.820;2022-12-08T08:06:50;0.00;;;0.00;;
9904;SDS011;4991;43.566;27.820;2022-12-08T08:09:15;0.10;;;0.10;;
9904;SDS011;4991;43.566;27.820;2022-12-08T08:11:41;0.00;;;0.00;;
9904;SDS011;4991;43.566;27.820;2022-12-08T08:14:07;0.10;;;0.10;;
9904;SDS011;4991;43.566;27.820;2022-12-08T08:16:32;0.00;;;0.00;;
9904;SDS011;4991;43.566;27.820;2022-12-08T08:18:58;0.00;;;0.00;;
9904;SDS011;4991;43.566;27.820;2022-12-08T08:21:23;0.03;;;0.03;;
9904;SDS011;4991;43.566;27.820;2022-12-08T08:23:49;0.10;;;0.10;;
9904;SDS011;4991;43.566;27.820;2022-12-08T08:26:15;0.10;;;0.10;;
9904;SDS011;4991;43.566;27.820;2022-12-08T08:28:40;0.00;;;0.00;;
9904;SDS011;4991;43.566;27.820;2022-12-08T08:31:07;3.00;;;2.47;;
9904;SDS011;4991;43.566;27.820;2022-12-08T08:33:33;0.10;;;0.10;;
9904;SDS011;4991;43.566;27.820;2022-12-08T08:35:59;0.03;;;0.03;;
9904;SDS011;4991;43.566;27.820;2022-12-08T08:38:24;0.10;;;0.10;;
9904;SDS011;4991;43.566;27.820;2022-12-08T08:40:50;0.10;;;0.10;;
9904;SDS011;4991;43.566;27.820;2022-12-08T08:43:15;0.10;;;0.10;;
9904;SDS011;4991;43.566;27.820;2022-12-08T08:45:59;0.10;;;0.10;;
9904;SDS011;4991;43.566;27.820;2022-12-08T08:48:26;0.10;;;0.10;;
9904;SDS011;4991;43.566;27.820;2022-12-08T08:50:53;0.10;;;0.10;;
9904;SDS011;4991;43.566;27.820;2022-12-08T08:53:20;0.10;;;0.10;;
9904;SDS011;4991;43.566;27.820;2022-12-08T08:55:46;0.10;;;0.10;;
9904;SDS011;4991;43.566;27.820;2022-12-08T08:58:12;4.60;;;4.37;;
9904;SDS011;4991;43.566;27.820;2022-12-08T09:00:38;0.10;;;0.10;;
9904;SDS011;4991;43.566;27.820;2022-12-08T09:03:04;0.10;;;0.10;;
9904;SDS011;4991;43.566;27.820;2022-12-08T09:05:29;1.97;;;1.90;;
9904;SDS011;4991;43.566;27.820;2022-12-08T09:07:55;0.10;;;0.10;;
9904;SDS011;4991;43.566;27.820;2022-12-08T09:10:21;0.10;;;0.10;;
9904;SDS011;4991;43.566;27.820;2022-12-08T09:12:47;0.10;;;0.10;;
9904;SDS011;4991;43.566;27.820;2022-12-08T09:15:12;0.10;;;0.10;;
9904;SDS011;4991;43.566;27.820;2022-12-08T09:17:38;0.10;;;0.10;;
9904;SDS011;4991;43.566;27.820;2022-12-08T09:20:06;0.10;;;0.10;;
9904;SDS011;4991;43.566;27.820;2022-12-08T09:22:32;0.10;;;0.10;;
9904;SDS011;4991;43.566;27.820;2022-12-08T09:24:58;0.10;;;0.10;;
9904;SDS011;4991;43.566;27.820;2022-12-08T09:27:24;0.20;;;0.20;;
9904;SDS011;4991;43.566;27.820;2022-12-08T09:29:50;0.10;;;0.10;;
9904;SDS011;4991;43.566;27.820;2022-12-08T09:32:15;0.10;;;0.10;;
9904;SDS011;4991;43.566;27.820;2022-12-08T09:34:41;0.10;;;0.10;;
9904;SDS011;4991;43.566;27.820;2022-12-08T09:37:06;0.10;;;0.10;;
9904;SDS011;4991;43.566;27.820;2022-12-08T09:39:32;0.10;;;0.10;;
9904;SDS011;4991;43.566;27.820;2022-12-08T09:41:59;0.10;;;0.10;;
9904;SDS011;4991;43.566;27.820;2022-12-08T09:47:13;0.10;;;0.10;;
9904;SDS011;4991;43.566;27.820;2022-12-08T09:50:03;0.10;;;0.10;;
9904;SDS011;4991;43.566;27.820;2022-12-08T09:52:40;0.80;;;0.80;;
9904;SDS011;4991;43.566;27.820;2022-12-08T09:55:19;0.10;;;0.10;;
9904;SDS011;4991;43.566;27.820;2022-12-08T09:57:51;0.10;;;0.10;;
9904;SDS011;4991;43.566;27.820;2022-12-08T10:00:24;0.10;;;0.10;;
9904;SDS011;4991;43.566;27.820;2022-12-08T10:02:50;3.03;;;2.83;;
9904;SDS011;4991;43.566;27.820;2022-12-08T10:05:16;0.20;;;0.20;;
9904;SDS011;4991;43.566;27.820;2022-12-08T10:07:53;0.10;;;0.10;;
9904;SDS011;4991;43.566;27.820;2022-12-08T10:10:37;0.10;;;0.10;;
9904;SDS011;4991;43.566;27.820;2022-12-08T10:18:40;0.20;;;0.20;;
9904;SDS011;4991;43.566;27.820;2022-12-08T10:23:47;0.17;;;0.17;;
9904;SDS011;4991;43.566;27.820;2022-12-08T10:26:17;0.10;;;0.10;;
9904;SDS011;4991;43.566;27.820;2022-12-08T10:28:45;0.10;;;0.10;;
9904;SDS011;4991;43.566;27.820;2022-12-08T10:31:18;0.10;;;0.10;;
9904;SDS011;4991;43.566;27.820;2022-12-08T10:33:45;0.13;;;0.13;;
9904;SDS011;4991;43.566;27.820;2022-12-08T10:36:15;0.10;;;0.10;;
9904;SDS011;4991;43.566;27.820;2022-12-08T10:38:41;0.10;;;0.10;;
9904;SDS011;4991;43.566;27.820;2022-12-08T10:43:41;0.20;;;0.20;;
9904;SDS011;4991;43.566;27.820;2022-12-08T10:46:20;0.10;;;0.10;;
9904;SDS011;4991;43.566;27.820;2022-12-08T10:48:53;0.20;;;0.20;;
9904;SDS011;4991;43.566;27.820;2022-12-08T10:51:35;0.17;;;0.17;;
9904;SDS011;4991;43.566;27.820;2022-12-08T10:54:03;0.10;;;0.10;;
9904;SDS011;4991;43.566;27.820;2022-12-08T10:56:30;0.20;;;0.20;;
9904;SDS011;4991;43.566;27.820;2022-12-08T10:59:10;0.10;;;0.10;;
9904;SDS011;4991;43.566;27.820;2022-12-08T11:01:44;0.30;;;0.30;;
9904;SDS011;4991;43.566;27.820;2022-12-08T11:04:16;0.10;;;0.10;;
9904;SDS011;4991;43.566;27.820;2022-12-08T11:06:44;0.13;;;0.13;;
9904;SDS011;4991;43.566;27.820;2022-12-08T11:11:44;0.10;;;0.10;;
9904;SDS011;4991;43.566;27.820;2022-12-08T11:14:15;0.20;;;0.20;;
9904;SDS011;4991;43.566;27.820;2022-12-08T11:16:51;0.50;;;0.50;;
9904;SDS011;4991;43.566;27.820;2022-12-08T11:19:20;0.20;;;0.20;;
9904;SDS011;4991;43.566;27.820;2022-12-08T11:21:53;0.10;;;0.10;;
9904;SDS011;4991;43.566;27.820;2022-12-08T11:24:23;0.10;;;0.10;;
9904;SDS011;4991;43.566;27.820;2022-12-08T11:26:52;0.10;;;0.10;;
9904;SDS011;4991;43.566;27.820;2022-12-08T11:29:25;0.20;;;0.20;;
9904;SDS011;4991;43.566;27.820;2022-12-08T11:31:53;0.10;;;0.10;;
9904;SDS011;4991;43.566;27.820;2022-12-08T11:37:22;0.10;;;0.10;;
9904;SDS011;4991;43.566;27.820;2022-12-08T11:39:55;0.10;;;0.10;;
9904;SDS011;4991;43.566;27.820;2022-12-08T11:42:26;0.10;;;0.10;;
9904;SDS011;4991;43.566;27.820;2022-12-08T11:45:05;0.10;;;0.10;;
9904;SDS011;4991;43.566;27.820;2022-12-08T11:47:37;0.17;;;0.17;;
9904;SDS011;4991;43.566;27.820;2022-12-08T11:53:17;0.70;;;0.70;;
9904;SDS011;4991;43.566;27.820;2022-12-08T11:55:57;0.10;;;0.10;;
9904;SDS011;4991;43.566;27.820;2022-12-08T12:01:20;0.20;;;0.20;;
9904;SDS011;4991;43.566;27.820;2022-12-08T12:09:31;3.53;;;3.30;;
9904;SDS011;4991;43.566;27.820;2022-12-08T12:20:26;0.10;;;0.10;;
9904;SDS011;4991;43.566;27.820;2022-12-08T12:22:59;1.47;;;1.47;;
9904;SDS011;4991;43.566;27.820;2022-12-08T12:25:33;0.10;;;0.10;;
9904;SDS011;4991;43.566;27.820;2022-12-08T12:28:02;0.40;;;0.40;;
9904;SDS011;4991;43.566;27.820;2022-12-08T12:30:51;0.10;;;0.10;;
9904;SDS011;4991;43.566;27.820;2022-12-08T12:33:23;5.63;;;5.10;;
9904;SDS011;4991;43.566;27.820;2022-12-08T12:35:49;0.10;;;0.10;;
9904;SDS011;4991;43.566;27.820;2022-12-08T12:38:28;0.43;;;0.43;;
9904;SDS011;4991;43.566;27.820;2022-12-08T12:41:20;0.20;;;0.20;;
9904;SDS011;4991;43.566;27.820;2022-12-08T12:44:08;0.20;;;0.20;;
9904;SDS011;4991;43.566;27.820;2022-12-08T12:54:43;0.40;;;0.40;;
9904;SDS011;4991;43.566;27.820;2022-12-08T13:02:21;0.10;;;0.10;;
9904;SDS011;4991;43.566;27.820;2022-12-08T13:07:34;0.60;;;0.60;;
9904;SDS011;4991;43.566;27.820;2022-12-08T13:12:36;10.10;;;7.00;;
9904;SDS011;4991;43.566;27.820;2022-12-08T13:15:03;0.10;;;0.10;;
9904;SDS011;4991;43.566;27.820;2022-12-08T13:17:31;1.60;;;1.53;;
9904;SDS011;4991;43.566;27.820;2022-12-08T13:20:00;0.47;;;0.47;;
9904;SDS011;4991;43.566;27.820;2022-12-08T13:22:47;0.20;;;0.20;;
9904;SDS011;4991;43.566;27.820;2022-12-08T13:28:12;0.20;;;0.20;;
9904;SDS011;4991;43.566;27.820;2022-12-08T13:30:43;0.30;;;0.30;;
9904;SDS011;4991;43.566;27.820;2022-12-08T13:33:58;1.80;;;1.70;;
9904;SDS011;4991;43.566;27.820;2022-12-08T13:36:24;0.23;;;0.23;;
9904;SDS011;4991;43.566;27.820;2022-12-08T13:38:56;0.70;;;0.70;;
9904;SDS011;4991;43.566;27.820;2022-12-08T13:41:47;0.10;;;0.10;;
9904;SDS011;4991;43.566;27.820;2022-12-08T13:44:21;1.07;;;1.07;;
9904;SDS011;4991;43.566;27.820;2022-12-08T13:46:51;0.37;;;0.37;;
9904;SDS011;4991;43.566;27.820;2022-12-08T13:49:33;0.20;;;0.20;;
9904;SDS011;4991;43.566;27.820;2022-12-08T13:52:10;0.53;;;0.53;;
9904;SDS011;4991;43.566;27.820;2022-12-08T13:54:44;0.20;;;0.20;;
9904;SDS011;4991;43.566;27.820;2022-12-08T13:57:54;0.10;;;0.10;;
9904;SDS011;4991;43.566;27.820;2022-12-08T14:00:03;0.77;;;0.73;;
9904;SDS011;4991;43.566;27.820;2022-12-08T14:02:40;0.10;;;0.10;;
9904;SDS011;4991;43.566;27.820;2022-12-08T14:05:09;0.20;;;0.20;;
9904;SDS011;4991;43.566;27.820;2022-12-08T14:07:35;0.50;;;0.50;;
9904;SDS011;4991;43.566;27.820;2022-12-08T14:10:15;0.30;;;0.30;;
9904;SDS011;4991;43.566;27.820;2022-12-08T14:12:45;0.30;;;0.30;;
9904;SDS011;4991;43.566;27.820;2022-12-08T14:15:16;0.20;;;0.20;;
9904;SDS011;4991;43.566;27.820;2022-12-08T14:17:49;0.37;;;0.37;;
9904;SDS011;4991;43.566;27.820;2022-12-08T14:20:19;1.53;;;1.53;;
9904;SDS011;4991;43.566;27.820;2022-12-08T14:22:50;0.10;;;0.10;;
9904;SDS011;4991;43.566;27.820;2022-12-08T14:25:19;1.07;;;1.07;;
9904;SDS011;4991;43.566;27.820;2022-12-08T14:27:46;0.20;;;0.20;;
9904;SDS011;4991;43.566;27.820;2022-12-08T14:32:48;0.23;;;0.23;;
9904;SDS011;4991;43.566;27.820;2022-12-08T14:38:02;0.40;;;0.40;;
9904;SDS011;4991;43.566;27.820;2022-12-08T14:53:53;0.20;;;0.20;;
9904;SDS011;4991;43.566;27.820;2022-12-08T14:56:39;0.10;;;0.10;;
9904;SDS011;4991;43.566;27.820;2022-12-08T14:59:12;0.30;;;0.30;;
9904;SDS011;4991;43.566;27.820;2022-12-08T15:01:45;1.50;;;1.40;;
9904;SDS011;4991;43.566;27.820;2022-12-08T15:07:13;26.13;;;16.23;;
9904;SDS011;4991;43.566;27.820;2022-12-08T15:09:43;0.10;;;0.10;;
9904;SDS011;4991;43.566;27.820;2022-12-08T15:14:40;0.20;;;0.20;;
9904;SDS011;4991;43.566;27.820;2022-12-08T15:17:46;0.30;;;0.30;;
9904;SDS011;4991;43.566;27.820;2022-12-08T15:20:27;0.10;;;0.10;;
9904;SDS011;4991;43.566;27.820;2022-12-08T15:22:59;0.60;;;0.60;;
9904;SDS011;4991;43.566;27.820;2022-12-08T15:25:26;0.20;;;0.20;;
9904;SDS011;4991;43.566;27.820;2022-12-08T15:27:51;0.30;;;0.30;;
9904;SDS011;4991;43.566;27.820;2022-12-08T15:30:17;0.30;;;0.30;;
9904;SDS011;4991;43.566;27.820;2022-12-08T15:32:43;9.00;;;3.70;;
9904;SDS011;4991;43.566;27.820;2022-12-08T15:35:15;0.20;;;0.20;;
9904;SDS011;4991;43.566;27.820;2022-12-08T15:37:41;0.10;;;0.10;;
9904;SDS011;4991;43.566;27.820;2022-12-08T15:40:09;0.20;;;0.20;;
9904;SDS011;4991;43.566;27.820;2022-12-08T15:42:41;0.20;;;0.20;;
9904;SDS011;4991;43.566;27.820;2022-12-08T15:45:10;0.10;;;0.10;;
9904;SDS011;4991;43.566;27.820;2022-12-08T15:47:37;0.20;;;0.20;;
9904;SDS011;4991;43.566;27.820;2022-12-08T15:50:03;6.70;;;5.10;;
9904;SDS011;4991;43.566;27.820;2022-12-08T15:52:40;0.10;;;0.10;;
9904;SDS011;4991;43.566;27.820;2022-12-08T15:55:10;0.10;;;0.10;;
9904;SDS011;4991;43.566;27.820;2022-12-08T15:57:37;0.10;;;0.10;;
9904;SDS011;4991;43.566;27.820;2022-12-08T16:00:03;0.10;;;0.10;;
9904;SDS011;4991;43.566;27.820;2022-12-08T16:02:29;0.10;;;0.10;;
9904;SDS011;4991;43.566;27.820;2022-12-08T16:04:55;0.20;;;0.20;;
9904;SDS011;4991;43.566;27.820;2022-12-08T16:09:47;0.13;;;0.13;;
9904;SDS011;4991;43.566;27.820;2022-12-08T16:12:17;0.20;;;0.20;;
9904;SDS011;4991;43.566;27.820;2022-12-08T16:15:03;0.40;;;0.40;;
9904;SDS011;4991;43.566;27.820;2022-12-08T16:17:29;0.20;;;0.20;;
9904;SDS011;4991;43.566;27.820;2022-12-08T16:19:55;0.10;;;0.10;;
9904;SDS011;4991;43.566;27.820;2022-12-08T16:22:25;0.10;;;0.10;;
9904;SDS011;4991;43.566;27.820;2022-12-08T16:24:53;0.63;;;0.63;;
9904;SDS011;4991;43.566;27.820;2022-12-08T16:27:36;0.10;;;0.10;;
9904;SDS011;4991;43.566;27.820;2022-12-08T16:30:03;2.10;;;1.90;;
9904;SDS011;4991;43.566;27.820;2022-12-08T16:32:31;0.33;;;0.33;;
9904;SDS011;4991;43.566;27.820;2022-12-08T16:34:56;0.33;;;0.33;;
9904;SDS011;4991;43.566;27.820;2022-12-08T16:37:24;0.20;;;0.20;;
9904;SDS011;4991;43.566;27.820;2022-12-08T16:39:52;3.40;;;3.30;;
9904;SDS011;4991;43.566;27.820;2022-12-08T16:42:29;0.83;;;0.83;;
9904;SDS011;4991;43.566;27.820;2022-12-08T16:45:09;0.10;;;0.10;;
9904;SDS011;4991;43.566;27.820;2022-12-08T16:47:44;0.10;;;0.10;;
9904;SDS011;4991;43.566;27.820;2022-12-08T16:50:33;0.10;;;0.10;;
9904;SDS011;4991;43.566;27.820;2022-12-08T16:55:27;0.10;;;0.10;;
9904;SDS011;4991;43.566;27.820;2022-12-08T16:57:55;0.10;;;0.10;;
9904;SDS011;4991;43.566;27.820;2022-12-08T17:00:22;0.10;;;0.10;;
9904;SDS011;4991;43.566;27.820;2022-12-08T17:02:50;0.10;;;0.10;;
9904;SDS011;4991;43.566;27.820;2022-12-08T17:05:17;0.10;;;0.10;;
9904;SDS011;4991;43.566;27.820;2022-12-08T17:07:45;0.37;;;0.37;;
9904;SDS011;4991;43.566;27.820;2022-12-08T17:10:13;0.10;;;0.10;;
9904;SDS011;4991;43.566;27.820;2022-12-08T17:12:41;0.10;;;0.10;;